Time;durP1;ratioP1;P1;durP2;ratioP2;P2;SDS_P1;SDS_P2;PMS_P1;PMS_P2;Temp;Humidity;BMP_temperature;BMP_pressure;BME280_temperature;BME280_humidity;BME280_pressure;Samples;Min_cycle;Max_cycle;Signal;HPM_P1;HPM_P2
2023/07/22 00:02:39;;;;;;;17.97;12.87;;;16.30;99.90;;;;;;4405155;28;656755;-64
2023/07/22 00:05:26;;;;;;;20.40;12.10;;;16.30;99.90;;;;;;4396842;28;656925;-64
2023/07/22 00:08:13;;;;;;;20.83;11.93;;;16.30;99.90;;;;;;4422774;28;657495;-64
2023/07/22 00:11:00;;;;;;;16.73;10.63;;;16.30;99.90;;;;;;4396418;28;656908;-64
2023/07/22 00:13:49;;;;;;;18.63;11.13;;;16.40;99.90;;;;;;4418148;28;657606;-64
2023/07/22 00:16:36;;;;;;;15.20;10.10;;;16.40;99.90;;;;;;4401297;28;656271;-64
2023/07/22 00:19:24;;;;;;;16.10;11.10;;;16.30;99.90;;;;;;4409173;28;656637;-64
2023/07/22 00:22:12;;;;;;;20.13;11.37;;;16.30;99.90;;;;;;4390740;28;656972;-65
2023/07/22 00:25:00;;;;;;;17.10;10.63;;;16.30;99.90;;;;;;4411805;28;656484;-64
2023/07/22 00:27:48;;;;;;;20.40;10.43;;;16.30;99.90;;;;;;4390468;28;658270;-65
2023/07/22 00:30:37;;;;;;;14.90;9.73;;;16.30;99.90;;;;;;4402033;28;658621;-65
2023/07/22 00:33:24;;;;;;;15.53;10.57;;;16.30;99.90;;;;;;4414872;28;655634;-64
2023/07/22 00:36:11;;;;;;;15.60;10.67;;;16.30;99.90;;;;;;4391658;28;657170;-64
2023/07/22 00:38:58;;;;;;;16.13;11.33;;;16.10;99.90;;;;;;4412209;28;656492;-64
2023/07/22 00:41:46;;;;;;;27.77;11.80;;;16.10;99.90;;;;;;4393217;28;656507;-64
2023/07/22 00:44:33;;;;;;;17.30;10.67;;;16.20;99.90;;;;;;4407209;28;658581;-65
2023/07/22 00:47:22;;;;;;;17.80;11.63;;;16.10;99.90;;;;;;4392957;28;656500;-64
2023/07/22 00:50:09;;;;;;;21.57;12.17;;;16.00;99.90;;;;;;4411610;28;657172;-64
2023/07/22 00:52:57;;;;;;;25.43;12.73;;;15.90;99.90;;;;;;4389404;28;657486;-65
2023/07/22 00:55:44;;;;;;;24.57;11.67;;;15.90;99.90;;;;;;4406268;28;656858;-64
2023/07/22 00:58:31;;;;;;;23.10;11.77;;;15.90;99.90;;;;;;4380590;28;656929;-64
2023/07/22 01:01:18;;;;;;;23.30;12.40;;;15.80;99.90;;;;;;4410492;28;658144;-64
2023/07/22 01:04:08;;;;;;;23.03;11.93;;;15.80;99.90;;;;;;4388722;28;656490;-64
2023/07/22 01:06:56;;;;;;;27.10;12.30;;;15.70;99.90;;;;;;4398549;28;656380;-65
2023/07/22 01:09:44;;;;;;;21.67;11.47;;;15.60;99.90;;;;;;4419145;28;657866;-65
2023/07/22 01:12:31;;;;;;;57.63;11.80;;;15.50;99.90;;;;;;4383521;28;656468;-64
2023/07/22 01:15:18;;;;;;;32.22;12.35;;;15.40;99.90;;;;;;4415448;28;657466;-65
2023/07/22 01:18:06;;;;;;;20.13;11.13;;;15.40;99.90;;;;;;4388265;28;656302;-66
2023/07/22 01:20:54;;;;;;;22.90;11.47;;;15.30;99.90;;;;;;4387967;28;657921;-65
2023/07/22 01:23:43;;;;;;;22.17;11.87;;;15.30;99.90;;;;;;4389624;28;657964;-64
2023/07/22 01:26:30;;;;;;;20.67;12.40;;;15.30;99.90;;;;;;4390682;28;656701;-65
2023/07/22 01:29:17;;;;;;;20.00;10.97;;;15.40;99.90;;;;;;4415239;28;656851;-65
2023/07/22 01:32:06;;;;;;;17.40;11.10;;;15.30;99.90;;;;;;4403375;28;656900;-65
2023/07/22 01:34:53;;;;;;;17.00;11.00;;;15.30;99.90;;;;;;4411247;28;657474;-65
2023/07/22 01:37:41;;;;;;;17.63;11.67;;;15.30;99.90;;;;;;4391207;28;656540;-64
2023/07/22 01:40:31;;;;;;;16.10;10.67;;;15.40;99.90;;;;;;4416233;28;657610;-65
2023/07/22 01:43:18;;;;;;;18.13;10.80;;;15.40;99.90;;;;;;4385725;28;657578;-64
2023/07/22 01:46:05;;;;;;;15.73;10.43;;;15.40;99.90;;;;;;4396251;28;657274;-65
2023/07/22 01:48:52;;;;;;;14.77;10.73;;;15.50;99.90;;;;;;4414097;28;656710;-65
2023/07/22 01:51:40;;;;;;;18.50;10.97;;;15.50;99.90;;;;;;4409468;28;656173;-64
2023/07/22 01:54:27;;;;;;;20.73;11.07;;;15.50;99.90;;;;;;4379234;28;657483;-66
2023/07/22 01:57:16;;;;;;;19.23;11.90;;;15.60;99.90;;;;;;4417830;28;656468;-64
2023/07/22 02:00:05;;;;;;;17.63;11.40;;;15.60;99.90;;;;;;4385083;28;656893;-66
2023/07/22 02:02:52;;;;;;;22.63;11.73;;;15.60;99.90;;;;;;4389389;28;658406;-64
2023/07/22 02:05:39;;;;;;;21.70;12.13;;;15.60;99.90;;;;;;4415863;28;656759;-64
2023/07/22 02:08:26;;;;;;;21.43;13.20;;;15.50;99.90;;;;;;4394693;28;656394;-65
2023/07/22 02:11:13;;;;;;;19.30;13.53;;;15.60;99.90;;;;;;4415663;28;657702;-64
2023/07/22 02:14:03;;;;;;;26.17;13.93;;;15.50;99.90;;;;;;4382665;28;656719;-65
2023/07/22 02:16:50;;;;;;;24.10;13.70;;;15.60;99.90;;;;;;4392700;28;656351;-65
2023/07/22 02:19:37;;;;;;;21.77;13.93;;;15.70;99.90;;;;;;4403580;28;658229;-65
2023/07/22 02:22:25;;;;;;;22.57;14.07;;;15.70;99.90;;;;;;4400450;28;656383;-65
2023/07/22 02:25:14;;;;;;;20.80;13.77;;;15.60;99.90;;;;;;4415526;28;657679;-64
2023/07/22 02:28:01;;;;;;;23.07;14.07;;;15.60;99.90;;;;;;4398862;28;656469;-65
2023/07/22 02:30:52;;;;;;;22.27;14.10;;;15.70;99.90;;;;;;4417474;28;657307;-65
2023/07/22 02:33:39;;;;;;;21.63;13.10;;;15.70;99.90;;;;;;4391065;28;656751;-64
2023/07/22 02:36:26;;;;;;;18.73;12.60;;;15.80;99.90;;;;;;4401254;28;656653;-64
2023/07/22 02:39:13;;;;;;;18.77;11.43;;;15.80;99.90;;;;;;4422399;28;656705;-65
2023/07/22 02:42:01;;;;;;;18.73;12.83;;;15.90;99.90;;;;;;4385923;28;656863;-65
2023/07/22 02:44:48;;;;;;;17.42;11.38;;;15.90;99.90;;;;;;4406263;28;657737;-65
2023/07/22 02:47:37;;;;;;;20.10;11.63;;;15.90;99.90;;;;;;4393455;28;656510;-65
2023/07/22 02:50:25;;;;;;;17.90;10.67;;;15.90;99.90;;;;;;4411657;28;656720;-64
2023/07/22 02:53:12;;;;;;;12.93;10.20;;;16.00;99.90;;;;;;4380793;28;657421;-64
2023/07/22 02:56:00;;;;;;;16.23;10.47;;;15.90;99.90;;;;;;4405006;28;656286;-65
2023/07/22 02:58:47;;;;;;;14.50;10.20;;;15.90;99.90;;;;;;4389031;28;657111;-65
2023/07/22 03:01:35;;;;;;;13.17;9.77;;;15.80;99.90;;;;;;4404169;28;656340;-66
2023/07/22 03:04:24;;;;;;;16.03;9.93;;;15.90;99.90;;;;;;4414592;28;656052;-65
2023/07/22 03:07:11;;;;;;;17.20;10.43;;;15.90;99.90;;;;;;4390127;28;655383;-65
2023/07/22 03:09:59;;;;;;;13.20;10.47;;;15.90;99.90;;;;;;4415628;28;658187;-65
2023/07/22 03:12:46;;;;;;;12.67;9.93;;;15.90;99.90;;;;;;4404781;28;656737;-65
2023/07/22 03:15:33;;;;;;;13.73;10.40;;;15.90;99.90;;;;;;4427315;28;656030;-65
2023/07/22 03:18:20;;;;;;;15.97;10.47;;;15.90;99.90;;;;;;4399735;28;656475;-65
2023/07/22 03:21:09;;;;;;;20.33;12.37;;;15.90;99.90;;;;;;4418637;28;658118;-65
2023/07/22 03:23:56;;;;;;;13.53;11.50;;;15.90;99.90;;;;;;4396217;28;656560;-65
2023/07/22 03:26:43;;;;;;;22.60;13.00;;;15.90;99.90;;;;;;4423328;28;657007;-64
2023/07/22 03:29:30;;;;;;;21.47;14.20;;;15.80;99.90;;;;;;4397600;28;656457;-64
2023/07/22 03:32:18;;;;;;;23.67;12.50;;;15.80;99.90;;;;;;4413944;28;657560;-65
2023/07/22 03:35:08;;;;;;;16.53;11.30;;;15.80;99.90;;;;;;4404701;28;656441;-65
2023/07/22 03:37:58;;;;;;;18.17;11.37;;;15.70;99.90;;;;;;4397491;28;656711;-66
2023/07/22 03:40:45;;;;;;;18.20;11.60;;;15.70;99.90;;;;;;4403559;28;656872;-66
2023/07/22 03:43:32;;;;;;;17.90;12.07;;;15.70;99.90;;;;;;4426151;28;657652;-65
2023/07/22 03:46:19;;;;;;;20.67;12.93;;;15.70;99.90;;;;;;4401623;28;656605;-64
2023/07/22 03:49:07;;;;;;;18.20;13.23;;;15.70;99.90;;;;;;4396489;28;657257;-64
2023/07/22 03:51:54;;;;;;;21.37;13.87;;;15.70;99.90;;;;;;4418396;28;656403;-64
2023/07/22 03:54:42;;;;;;;24.63;15.73;;;15.70;99.90;;;;;;4387967;28;656805;-65
2023/07/22 03:57:30;;;;;;;30.97;19.03;;;15.60;99.90;;;;;;4416049;28;656696;-66
2023/07/22 04:00:18;;;;;;;28.03;18.63;;;15.50;99.90;;;;;;4416785;28;657565;-64
2023/07/22 04:03:05;;;;;;;34.17;22.27;;;15.50;99.90;;;;;;4411962;28;656934;-64
2023/07/22 04:05:55;;;;;;;40.40;25.17;;;15.50;99.90;;;;;;4421988;28;656701;-65
2023/07/22 04:08:43;;;;;;;38.42;25.63;;;15.50;99.90;;;;;;4386263;28;658255;-65
2023/07/22 04:11:32;;;;;;;45.03;26.50;;;15.50;99.90;;;;;;4410326;28;656840;-65
2023/07/22 04:14:19;;;;;;;45.43;27.80;;;15.50;99.90;;;;;;4409165;28;656949;-65
2023/07/22 04:17:06;;;;;;;43.97;27.73;;;15.50;99.90;;;;;;4388641;28;656577;-65
2023/07/22 04:19:53;;;;;;;46.53;29.27;;;15.60;99.90;;;;;;4424223;28;658488;-64
2023/07/22 04:22:41;;;;;;;46.83;28.73;;;15.60;99.90;;;;;;4397604;28;656596;-65
2023/07/22 04:25:28;;;;;;;48.60;31.17;;;15.70;99.90;;;;;;4420972;28;656850;-65
2023/07/22 04:28:17;;;;;;;52.37;31.90;;;15.60;99.90;;;;;;4398082;28;656839;-65
2023/07/22 04:31:04;;;;;;;47.97;30.13;;;15.50;99.90;;;;;;4413708;28;656964;-64
2023/07/22 04:33:51;;;;;;;44.87;27.37;;;15.70;99.90;;;;;;4402412;28;656393;-65
2023/07/22 04:36:38;;;;;;;49.08;30.73;;;15.60;99.90;;;;;;4410869;28;657659;-64
2023/07/22 04:39:25;;;;;;;50.50;30.80;;;15.70;99.90;;;;;;4397908;28;657062;-65
2023/07/22 04:42:13;;;;;;;44.37;28.57;;;15.70;99.90;;;;;;4411875;28;657738;-66
2023/07/22 04:45:02;;;;;;;47.80;30.40;;;15.80;99.90;;;;;;4397874;28;656505;-65
2023/07/22 04:47:50;;;;;;;53.40;32.10;;;15.90;99.90;;;;;;4413691;28;656919;-64
2023/07/22 04:50:40;;;;;;;56.73;35.27;;;15.80;99.90;;;;;;4394445;28;656830;-64
2023/07/22 04:53:27;;;;;;;53.47;33.27;;;15.70;99.90;;;;;;4394595;28;657072;-64
2023/07/22 04:56:14;;;;;;;55.30;33.83;;;15.80;99.90;;;;;;4404010;28;656679;-64
2023/07/22 04:59:03;;;;;;;53.47;34.10;;;15.80;99.90;;;;;;4397796;28;657228;-64
2023/07/22 05:01:52;;;;;;;49.43;30.57;;;15.80;99.90;;;;;;4398642;28;657091;-65
2023/07/22 05:04:39;;;;;;;57.80;34.93;;;15.80;99.90;;;;;;4408032;28;657098;-64
2023/07/22 05:07:26;;;;;;;63.90;36.53;;;15.90;99.90;;;;;;4392146;28;656865;-64
2023/07/22 05:10:14;;;;;;;65.67;36.03;;;15.70;99.90;;;;;;4407550;28;657520;-64
2023/07/22 05:13:01;;;;;;;69.03;40.67;;;15.90;99.90;;;;;;4395059;28;656407;-64
2023/07/22 05:15:48;;;;;;;69.47;41.13;;;15.80;99.90;;;;;;4414213;28;657169;-64
2023/07/22 05:18:38;;;;;;;73.77;43.30;;;15.80;99.90;;;;;;4394227;28;657062;-66
2023/07/22 05:21:25;;;;;;;82.13;44.77;;;15.70;99.90;;;;;;4394787;28;656404;-64
2023/07/22 05:24:13;;;;;;;79.63;45.80;;;15.80;99.90;;;;;;4406571;28;658835;-64
2023/07/22 05:27:00;;;;;;;82.57;46.53;;;15.90;99.90;;;;;;4396645;28;656633;-65
2023/07/22 05:29:47;;;;;;;84.00;44.60;;;15.60;99.90;;;;;;4412992;28;657283;-64
2023/07/22 05:32:35;;;;;;;73.97;43.13;;;15.60;99.90;;;;;;4411861;28;656250;-64
2023/07/22 05:35:23;;;;;;;74.67;45.60;;;15.80;99.90;;;;;;4389582;28;657797;-64
2023/07/22 05:38:10;;;;;;;73.17;44.23;;;15.70;99.90;;;;;;4392479;28;656840;-65
2023/07/22 05:40:58;;;;;;;77.40;45.23;;;15.70;99.90;;;;;;4412414;28;658305;-64
2023/07/22 05:43:45;;;;;;;67.83;40.77;;;15.70;99.90;;;;;;4405577;28;656620;-65
2023/07/22 05:46:32;;;;;;;71.03;42.17;;;15.70;99.90;;;;;;4410494;28;657326;-64
2023/07/22 05:49:20;;;;;;;75.87;44.37;;;15.70;99.90;;;;;;4416238;28;656597;-65
2023/07/22 05:52:09;;;;;;;80.97;46.63;;;15.70;99.90;;;;;;4418733;28;657332;-64
2023/07/22 05:54:56;;;;;;;75.27;44.23;;;15.80;99.90;;;;;;4395427;28;656780;-64
2023/07/22 05:57:43;;;;;;;77.37;43.47;;;16.00;99.90;;;;;;4406416;28;657704;-64
2023/07/22 06:00:30;;;;;;;61.03;39.47;;;16.10;99.90;;;;;;4392873;28;656204;-65
2023/07/22 06:03:18;;;;;;;62.13;37.30;;;16.30;99.90;;;;;;4406272;28;657932;-64
2023/07/22 06:06:05;;;;;;;64.57;36.73;;;16.30;99.90;;;;;;4396597;28;656667;-65
2023/07/22 06:08:54;;;;;;;57.17;36.97;;;16.30;99.90;;;;;;4421539;28;656499;-64
2023/07/22 06:11:41;;;;;;;56.33;35.53;;;16.20;99.90;;;;;;4389072;28;656706;-64
2023/07/22 06:14:29;;;;;;;59.30;34.37;;;16.20;99.90;;;;;;4412367;28;657041;-64
2023/07/22 06:17:16;;;;;;;49.53;33.50;;;16.10;99.90;;;;;;4387039;28;656347;-64
2023/07/22 06:20:04;;;;;;;51.57;32.67;;;16.30;99.90;;;;;;4412208;28;657845;-64
2023/07/22 06:22:51;;;;;;;49.17;31.37;;;16.40;99.90;;;;;;4393828;28;656771;-64
2023/07/22 06:25:40;;;;;;;41.87;27.87;;;16.50;99.90;;;;;;4409622;28;657517;-64
2023/07/22 06:28:27;;;;;;;36.23;24.23;;;16.60;99.90;;;;;;4386911;28;658380;-64
2023/07/22 06:31:14;;;;;;;34.57;24.00;;;16.70;99.90;;;;;;4407095;28;656935;-64
2023/07/22 06:34:02;;;;;;;30.03;23.20;;;16.90;99.90;;;;;;4390277;28;656555;-64
2023/07/22 06:36:50;;;;;;;26.83;19.00;;;17.10;99.90;;;;;;4402810;28;656605;-65
2023/07/22 06:39:37;;;;;;;24.70;15.83;;;17.00;99.90;;;;;;4418941;28;656926;-64
2023/07/22 06:42:27;;;;;;;21.77;16.07;;;17.00;99.90;;;;;;4405005;28;656182;-64
2023/07/22 06:45:14;;;;;;;20.93;14.17;;;17.00;99.90;;;;;;4393035;28;656836;-64
2023/07/22 06:48:01;;;;;;;19.63;13.20;;;17.00;99.90;;;;;;4391332;28;657064;-64
2023/07/22 06:50:48;;;;;;;23.23;12.47;;;17.30;99.90;;;;;;4412889;28;657519;-64
2023/07/22 06:53:36;;;;;;;15.10;10.80;;;17.50;99.90;;;;;;4390281;28;656645;-65
2023/07/22 06:56:26;;;;;;;16.63;10.83;;;17.80;99.90;;;;;;4414373;28;656779;-64
2023/07/22 06:59:14;;;;;;;15.90;9.60;;;17.60;99.90;;;;;;4386815;28;657593;-64
2023/07/22 07:02:01;;;;;;;13.13;9.87;;;17.40;99.90;;;;;;4391298;28;655638;-64
2023/07/22 07:04:49;;;;;;;13.03;8.43;;;17.60;99.90;;;;;;4415108;28;656066;-64
2023/07/22 07:07:36;;;;;;;13.47;7.50;;;18.00;99.90;;;;;;4393067;28;655835;-64
2023/07/22 07:10:23;;;;;;;12.37;7.77;;;18.40;99.90;;;;;;4410542;28;656474;-64
2023/07/22 07:13:10;;;;;;;11.03;7.20;;;18.40;99.90;;;;;;4394496;28;655487;-65
2023/07/22 07:16:07;;;;;;;10.90;6.83;;;18.30;99.90;;;;;;4412424;28;656961;-65
2023/07/22 07:18:54;;;;;;;6.93;5.30;;;18.20;99.90;;;;;;4383676;28;655551;-64
2023/07/22 07:21:42;;;;;;;8.10;5.90;;;18.30;99.90;;;;;;4395443;28;655202;-64
2023/07/22 07:24:29;;;;;;;8.63;5.57;;;18.10;99.90;;;;;;4421765;28;654407;-65
2023/07/22 07:27:16;;;;;;;8.90;4.73;;;18.30;99.90;;;;;;4397299;28;654974;-64
2023/07/22 07:30:05;;;;;;;7.33;4.50;;;18.60;99.90;;;;;;4413745;28;654802;-64
2023/07/22 07:32:53;;;;;;;6.43;4.40;;;18.80;99.90;;;;;;4392465;28;655656;-64
2023/07/22 07:35:40;;;;;;;4.67;3.63;;;19.00;99.90;;;;;;4397073;28;654568;-64
2023/07/22 07:38:28;;;;;;;5.90;4.27;;;19.10;99.90;;;;;;4410107;28;656053;-64
2023/07/22 07:41:15;;;;;;;8.53;3.93;;;19.20;99.90;;;;;;4398489;28;654418;-64
2023/07/22 07:44:03;;;;;;;5.10;3.37;;;19.40;99.90;;;;;;4409476;28;655288;-64
2023/07/22 07:46:50;;;;;;;3.83;3.10;;;19.70;99.90;;;;;;4404065;28;654738;-66
2023/07/22 07:49:40;;;;;;;3.57;2.97;;;19.80;99.90;;;;;;4409901;28;655276;-65
2023/07/22 07:52:27;;;;;;;4.20;2.87;;;19.70;99.90;;;;;;4386534;28;655344;-64
2023/07/22 07:55:15;;;;;;;7.63;3.30;;;19.50;99.90;;;;;;4418275;28;654904;-64
2023/07/22 07:58:02;;;;;;;4.40;3.17;;;19.40;99.90;;;;;;4385859;28;655174;-64
2023/07/22 08:00:49;;;;;;;5.00;3.30;;;19.00;99.90;;;;;;4404953;28;654983;-64
2023/07/22 08:03:37;;;;;;;4.60;3.43;;;19.10;99.90;;;;;;4398416;28;654752;-65
2023/07/22 08:06:25;;;;;;;6.53;3.47;;;19.40;99.90;;;;;;4420571;28;654937;-65
2023/07/22 08:09:18;;;;;;;6.17;3.40;;;19.20;99.90;;;;;;4387826;28;655570;-64
2023/07/22 08:12:06;;;;;;;5.27;2.80;;;18.90;99.90;;;;;;4373379;28;655385;-65
2023/07/22 08:14:53;;;;;;;3.33;2.87;;;18.70;99.90;;;;;;4412963;28;655598;-64
2023/07/22 08:17:41;;;;;;;5.10;3.00;;;19.00;99.90;;;;;;4398275;28;655112;-64
2023/07/22 08:20:28;;;;;;;4.43;3.17;;;19.70;99.90;;;;;;4409687;28;655085;-65
2023/07/22 08:23:17;;;;;;;5.40;3.33;;;19.20;99.90;;;;;;4406005;28;654731;-65
2023/07/22 08:26:05;;;;;;;4.13;3.30;;;19.30;99.90;;;;;;4404130;28;654742;-65
2023/07/22 08:28:52;;;;;;;6.00;3.03;;;19.50;99.90;;;;;;4387200;28;655292;-65
2023/07/22 08:31:39;;;;;;;7.03;3.30;;;19.80;99.90;;;;;;4414728;28;655845;-64
2023/07/22 08:34:27;;;;;;;6.77;3.10;;;19.80;99.90;;;;;;4397218;28;654363;-64
2023/07/22 08:37:14;;;;;;;5.17;3.20;;;19.80;99.90;;;;;;4415609;28;654837;-64
2023/07/22 08:40:05;;;;;;;3.97;3.20;;;19.90;99.90;;;;;;4381572;28;654491;-64
2023/07/22 08:42:52;;;;;;;8.53;3.70;;;19.90;99.90;;;;;;4396693;28;655734;-64
2023/07/22 08:45:40;;;;;;;9.53;3.70;;;19.80;99.90;;;;;;4412591;28;654793;-64
2023/07/22 08:48:27;;;;;;;6.87;3.50;;;20.10;99.90;;;;;;4397242;28;655840;-64
2023/07/22 08:51:17;;;;;;;4.57;3.37;;;20.10;99.90;;;;;;4409471;28;655170;-64
2023/07/22 08:54:04;;;;;;;6.10;2.87;;;19.90;99.90;;;;;;4394592;28;654330;-64
2023/07/22 08:56:52;;;;;;;5.37;2.70;;;19.50;99.90;;;;;;4396157;28;654446;-64
2023/07/22 08:59:40;;;;;;;3.53;2.90;;;19.30;99.90;;;;;;4407448;28;654810;-65
2023/07/22 09:02:27;;;;;;;3.20;2.60;;;19.60;99.90;;;;;;4419297;28;655275;-65
2023/07/22 09:05:15;;;;;;;4.03;2.70;;;19.50;99.90;;;;;;4413586;28;654974;-64
2023/07/22 09:08:03;;;;;;;5.40;2.70;;;19.30;99.90;;;;;;4393522;28;655788;-64
2023/07/22 09:10:50;;;;;;;8.57;2.93;;;19.10;99.90;;;;;;4389151;28;654935;-65
2023/07/22 09:13:40;;;;;;;7.30;2.67;;;19.00;99.90;;;;;;4407104;28;655890;-63
2023/07/22 09:16:27;;;;;;;3.07;2.40;;;19.30;99.90;;;;;;4394551;28;655843;-64
2023/07/22 09:19:14;;;;;;;4.80;2.53;;;19.80;99.90;;;;;;4413474;28;654385;-64
2023/07/22 09:22:01;;;;;;;5.23;2.67;;;20.30;99.90;;;;;;4400017;28;654858;-64
2023/07/22 09:24:48;;;;;;;7.07;2.40;;;20.40;99.90;;;;;;4414950;28;655618;-64
2023/07/22 09:27:36;;;;;;;3.27;2.10;;;20.30;99.90;;;;;;4400506;28;654556;-65
2023/07/22 09:30:26;;;;;;;7.43;2.30;;;21.00;99.90;;;;;;4411901;28;655402;-64
2023/07/22 09:33:21;;;;;;;2.53;2.23;;;20.60;99.90;;;;;;4395600;28;654893;-63
2023/07/22 09:36:10;;;;;;;4.57;2.17;;;19.80;99.90;;;;;;4390815;28;654822;-64
2023/07/22 09:39:02;;;;;;;5.23;2.03;;;19.70;99.90;;;;;;4394236;28;656015;-64
2023/07/22 09:41:49;;;;;;;4.90;2.30;;;19.70;99.90;;;;;;4392262;28;654179;-64
2023/07/22 09:44:38;;;;;;;3.53;2.17;;;19.60;99.90;;;;;;4402342;28;655045;-64
2023/07/22 09:47:26;;;;;;;4.97;2.30;;;20.30;99.90;;;;;;4409152;28;654302;-65
2023/07/22 09:50:17;;;;;;;5.50;2.60;;;21.10;99.90;;;;;;4409216;28;654835;-64
2023/07/22 09:53:04;;;;;;;2.80;2.00;;;21.30;99.90;;;;;;4386477;28;654958;-64
2023/07/22 09:55:53;;;;;;;5.53;2.00;;;20.90;99.90;;;;;;4396647;28;655558;-64
2023/07/22 09:58:40;;;;;;;2.97;1.90;;;21.20;99.90;;;;;;4396459;28;655047;-64
2023/07/22 10:01:28;;;;;;;2.83;1.97;;;21.40;99.90;;;;;;4418196;28;655737;-64
2023/07/22 10:04:17;;;;;;;2.87;1.90;;;21.90;99.90;;;;;;4381625;28;654992;-64
2023/07/22 10:07:05;;;;;;;2.83;2.20;;;21.60;99.90;;;;;;4411726;28;655088;-64
2023/07/22 10:09:52;;;;;;;2.90;2.37;;;21.20;99.90;;;;;;4400132;28;656331;-64
2023/07/22 10:12:41;;;;;;;2.90;2.10;;;20.80;99.90;;;;;;4404460;28;653997;-65
2023/07/22 10:15:30;;;;;;;4.03;2.13;;;20.80;99.90;;;;;;4420116;28;655647;-64
2023/07/22 10:18:19;;;;;;;2.20;1.87;;;21.60;99.90;;;;;;4393788;28;656201;-64
2023/07/22 10:21:08;;;;;;;4.00;1.97;;;22.30;99.90;;;;;;4395858;28;654867;-64
2023/07/22 10:23:55;;;;;;;3.77;1.90;;;22.70;99.90;;;;;;4385683;28;654219;-65
2023/07/22 10:26:43;;;;;;;5.60;2.00;;;22.70;99.90;;;;;;4411785;28;655599;-65
2023/07/22 10:29:30;;;;;;;4.03;2.00;;;22.30;99.90;;;;;;4406536;28;655166;-64
2023/07/22 10:32:19;;;;;;;3.80;2.00;;;22.60;99.00;;;;;;4410226;28;655762;-64
2023/07/22 10:35:10;;;;;;;2.33;2.00;;;22.60;99.90;;;;;;4395395;28;654424;-64
2023/07/22 10:38:07;;;;;;;6.33;1.90;;;22.00;99.90;;;;;;4401402;28;654594;-65
2023/07/22 10:40:55;;;;;;;6.53;2.30;;;22.10;99.90;;;;;;4386304;28;655468;-64
2023/07/22 10:43:42;;;;;;;3.40;2.20;;;22.00;99.90;;;;;;4384563;28;656682;-65
2023/07/22 10:46:33;;;;;;;4.43;2.00;;;21.80;99.90;;;;;;4409432;28;655907;-64
2023/07/22 10:49:20;;;;;;;3.77;2.23;;;21.50;99.90;;;;;;4369080;28;655595;-64
2023/07/22 10:52:07;;;;;;;2.73;1.90;;;21.70;99.90;;;;;;4413842;28;656445;-64
2023/07/22 10:54:57;;;;;;;3.33;1.90;;;22.10;99.90;;;;;;4417684;28;656155;-65
2023/07/22 10:57:51;;;;;;;3.27;2.10;;;22.80;99.90;;;;;;4416533;28;655498;-64
2023/07/22 11:00:38;;;;;;;2.83;1.90;;;22.90;97.70;;;;;;4388543;28;655613;-64
2023/07/22 11:03:25;;;;;;;4.03;2.17;;;22.60;99.90;;;;;;4405810;28;655462;-64
2023/07/22 11:06:12;;;;;;;3.63;2.07;;;22.00;99.90;;;;;;4409324;28;656342;-64
2023/07/22 11:09:00;;;;;;;2.77;2.10;;;21.80;99.90;;;;;;4404230;28;656578;-65
2023/07/22 11:11:49;;;;;;;3.03;2.00;;;22.00;99.90;;;;;;4423542;28;656120;-64
2023/07/22 11:14:38;;;;;;;5.80;2.20;;;22.20;99.90;;;;;;4392953;28;655529;-64
2023/07/22 11:17:29;;;;;;;1.90;1.73;;;22.10;99.90;;;;;;4391998;28;655422;-64
2023/07/22 11:20:16;;;;;;;5.07;2.00;;;21.70;99.90;;;;;;4390798;28;655336;-64
2023/07/22 11:23:03;;;;;;;4.10;2.20;;;21.70;99.90;;;;;;4417247;28;656353;-64
2023/07/22 11:25:51;;;;;;;2.60;2.10;;;21.60;99.90;;;;;;4393183;28;655732;-65
2023/07/22 11:28:41;;;;;;;3.77;1.90;;;21.50;99.90;;;;;;4407870;28;657497;-63
2023/07/22 11:31:32;;;;;;;4.17;2.40;;;21.60;99.90;;;;;;4392865;28;656394;-64
2023/07/22 11:34:20;;;;;;;5.33;1.93;;;21.60;99.90;;;;;;4396264;28;656018;-64
2023/07/22 11:37:07;;;;;;;4.17;2.17;;;21.40;99.90;;;;;;4395992;28;655911;-64
2023/07/22 11:39:55;;;;;;;2.90;2.10;;;21.20;99.90;;;;;;4415150;28;655687;-63
2023/07/22 11:42:42;;;;;;;2.40;2.20;;;21.60;99.90;;;;;;4384497;28;656510;-64
2023/07/22 11:45:32;;;;;;;7.43;2.27;;;21.70;99.90;;;;;;4410070;28;655804;-63
2023/07/22 11:48:19;;;;;;;6.27;2.20;;;21.60;99.90;;;;;;4394664;28;655802;-64
2023/07/22 11:51:08;;;;;;;3.60;2.20;;;21.70;99.90;;;;;;4383524;28;655512;-64
2023/07/22 11:53:55;;;;;;;4.30;2.03;;;22.30;99.90;;;;;;4391865;28;655266;-64
2023/07/22 11:56:43;;;;;;;3.00;1.93;;;22.80;99.90;;;;;;4412301;28;657159;-64
2023/07/22 11:59:34;;;;;;;3.17;2.00;;;22.60;99.90;;;;;;4402194;28;655770;-64
2023/07/22 12:02:24;;;;;;;4.10;2.03;;;23.20;99.90;;;;;;4383222;28;656624;-63
2023/07/22 12:05:11;;;;;;;3.77;1.80;;;22.60;91.20;;;;;;4394363;28;655673;-64
2023/07/22 12:07:58;;;;;;;2.83;1.77;;;23.10;95.20;;;;;;4415780;28;657050;-64
2023/07/22 12:10:46;;;;;;;3.90;1.83;;;23.50;83.70;;;;;;4393303;28;655149;-63
2023/07/22 12:13:37;;;;;;;3.47;1.90;;;23.30;83.30;;;;;;4424752;28;656343;-64
2023/07/22 12:16:24;;;;;;;2.72;2.10;;;23.40;83.40;;;;;;4381440;28;655717;-65
2023/07/22 12:19:13;;;;;;;1.80;1.58;;;24.20;85.40;;;;;;4395510;28;656054;-64
2023/07/22 12:22:00;;;;;;;2.15;1.75;;;24.50;74.30;;;;;;4395746;28;656033;-64
2023/07/22 12:24:48;;;;;;;4.70;1.70;;;24.50;71.70;;;;;;4414853;28;657296;-65
2023/07/22 12:27:35;;;;;;;2.92;1.52;;;24.90;69.10;;;;;;4403895;28;656225;-64
2023/07/22 12:30:23;;;;;;;3.80;1.60;;;24.20;71.20;;;;;;4406966;28;657157;-64
2023/07/22 12:33:11;;;;;;;4.68;2.03;;;24.00;75.80;;;;;;4393942;28;655253;-64
2023/07/22 12:35:59;;;;;;;2.03;1.70;;;24.00;66.70;;;;;;4417779;28;657541;-64
2023/07/22 12:38:47;;;;;;;4.47;2.08;;;23.60;64.20;;;;;;4396733;28;655456;-64
2023/07/22 12:41:34;;;;;;;2.20;1.80;;;23.60;68.50;;;;;;4416599;28;655539;-63
2023/07/22 12:44:21;;;;;;;2.60;1.55;;;23.50;67.20;;;;;;4389323;28;655349;-64
2023/07/22 12:47:09;;;;;;;3.22;1.65;;;23.50;67.30;;;;;;4418695;28;656049;-64
2023/07/22 12:49:56;;;;;;;3.63;1.85;;;23.10;67.60;;;;;;4397269;28;655483;-64
2023/07/22 12:52:45;;;;;;;3.13;1.80;;;22.80;71.60;;;;;;4414805;28;656532;-64
2023/07/22 12:55:32;;;;;;;4.27;1.83;;;22.50;73.70;;;;;;4395210;28;656665;-64
2023/07/22 12:58:19;;;;;;;4.87;2.23;;;22.40;75.70;;;;;;4405137;28;655837;-64
2023/07/22 13:01:07;;;;;;;4.53;1.90;;;22.20;74.50;;;;;;4397336;28;655482;-64
2023/07/22 13:03:54;;;;;;;4.67;2.23;;;22.10;81.20;;;;;;4414955;28;655786;-64
2023/07/22 13:06:41;;;;;;;3.97;1.80;;;21.60;83.80;;;;;;4395316;28;655707;-65
2023/07/22 13:09:30;;;;;;;2.93;1.90;;;21.20;85.00;;;;;;4423085;28;656282;-64
2023/07/22 13:12:17;;;;;;;8.23;2.20;;;21.10;86.00;;;;;;4410735;28;655987;-64
2023/07/22 13:15:05;;;;;;;2.50;2.17;;;21.00;91.20;;;;;;4413603;28;655231;-63
2023/07/22 13:17:53;;;;;;;2.07;1.87;;;20.70;93.70;;;;;;4380113;28;657744;-63
2023/07/22 13:20:40;;;;;;;2.30;2.00;;;20.80;94.50;;;;;;4401247;28;655658;-64
2023/07/22 13:23:28;;;;;;;2.47;2.20;;;20.70;94.40;;;;;;4413526;28;657614;-64
2023/07/22 13:26:16;;;;;;;4.40;2.27;;;20.70;96.90;;;;;;4401829;28;656202;-64
2023/07/22 13:29:04;;;;;;;2.70;2.00;;;20.90;96.00;;;;;;4413680;28;655267;-64
2023/07/22 13:31:51;;;;;;;2.57;2.10;;;20.80;95.90;;;;;;4387238;28;655563;-64
2023/07/22 13:34:38;;;;;;;3.13;2.20;;;21.20;97.20;;;;;;4414792;28;656502;-64
2023/07/22 13:37:25;;;;;;;5.70;2.30;;;21.50;94.80;;;;;;4396087;28;655340;-64
2023/07/22 13:40:13;;;;;;;2.60;2.10;;;21.80;94.30;;;;;;4404974;28;655670;-63
2023/07/22 13:43:02;;;;;;;3.27;2.17;;;21.90;92.90;;;;;;4394541;28;655873;-64
2023/07/22 13:45:49;;;;;;;4.37;2.20;;;22.50;90.20;;;;;;4416959;28;656834;-63
2023/07/22 13:48:36;;;;;;;5.73;2.20;;;23.00;91.00;;;;;;4396554;28;655441;-63
2023/07/22 13:51:23;;;;;;;3.08;2.20;;;23.50;88.20;;;;;;4409299;28;656004;-64
2023/07/22 13:54:11;;;;;;;3.50;2.30;;;24.00;87.10;;;;;;4389846;28;656103;-64
2023/07/22 13:56:58;;;;;;;3.53;2.10;;;23.70;74.50;;;;;;4413153;28;656511;-64
2023/07/22 13:59:47;;;;;;;3.72;2.13;;;24.30;70.40;;;;;;4395420;28;655304;-64
2023/07/22 14:02:34;;;;;;;3.95;2.40;;;24.30;69.70;;;;;;4404649;28;656089;-64
2023/07/22 14:05:21;;;;;;;2.58;1.92;;;24.80;72.50;;;;;;4395040;28;655796;-64
2023/07/22 14:08:08;;;;;;;2.45;2.00;;;24.80;61.20;;;;;;4410168;28;656360;-64
2023/07/22 14:10:56;;;;;;;3.65;2.15;;;24.60;67.90;;;;;;4383671;28;655622;-64
2023/07/22 14:13:43;;;;;;;3.38;2.25;;;24.70;62.40;;;;;;4418340;28;656168;-64